sensor_id;sensor_type;location;lat;lon;timestamp;P1;durP1;ratioP1;P2;durP2;ratioP2
22646;SDS011;11490;42.726;23.268;2022-11-15T00:00:02;66.03;;;32.00;;
22646;SDS011;11490;42.726;23.268;2022-11-15T00:02:28;61.63;;;33.72;;
22646;SDS011;11490;42.726;23.268;2022-11-15T00:04:54;62.03;;;33.85;;
22646;SDS011;11490;42.726;23.268;2022-11-15T00:07:19;64.53;;;32.25;;
22646;SDS011;11490;42.726;23.268;2022-11-15T00:09:44;62.05;;;31.73;;
22646;SDS011;11490;42.726;23.268;2022-11-15T00:12:10;61.88;;;33.53;;
22646;SDS011;11490;42.726;23.268;2022-11-15T00:14:35;61.70;;;32.90;;
22646;SDS011;11490;42.726;23.268;2022-11-15T00:17:00;59.13;;;30.83;;
22646;SDS011;11490;42.726;23.268;2022-11-15T00:19:26;73.72;;;31.75;;
22646;SDS011;11490;42.726;23.268;2022-11-15T00:21:51;62.47;;;32.90;;
22646;SDS011;11490;42.726;23.268;2022-11-15T00:24:17;69.93;;;32.65;;
22646;SDS011;11490;42.726;23.268;2022-11-15T00:26:42;56.72;;;31.83;;
22646;SDS011;11490;42.726;23.268;2022-11-15T00:29:07;58.13;;;30.75;;
22646;SDS011;11490;42.726;23.268;2022-11-15T00:31:33;65.82;;;34.42;;
22646;SDS011;11490;42.726;23.268;2022-11-15T00:33:58;53.97;;;30.00;;
22646;SDS011;11490;42.726;23.268;2022-11-15T00:36:23;54.75;;;30.58;;
22646;SDS011;11490;42.726;23.268;2022-11-15T00:38:49;71.18;;;31.75;;
22646;SDS011;11490;42.726;23.268;2022-11-15T00:41:14;52.05;;;27.80;;
22646;SDS011;11490;42.726;23.268;2022-11-15T00:43:40;61.25;;;29.23;;
22646;SDS011;11490;42.726;23.268;2022-11-15T00:46:08;49.65;;;28.63;;
22646;SDS011;11490;42.726;23.268;2022-11-15T00:48:34;57.25;;;31.10;;
22646;SDS011;11490;42.726;23.268;2022-11-15T00:51:00;64.55;;;32.33;;
22646;SDS011;11490;42.726;23.268;2022-11-15T00:53:25;51.90;;;32.05;;
22646;SDS011;11490;42.726;23.268;2022-11-15T00:55:51;64.95;;;33.10;;
22646;SDS011;11490;42.726;23.268;2022-11-15T00:58:16;68.68;;;32.05;;
22646;SDS011;11490;42.726;23.268;2022-11-15T01:00:42;52.65;;;31.48;;
22646;SDS011;11490;42.726;23.268;2022-11-15T01:03:07;66.47;;;31.00;;
22646;SDS011;11490;42.726;23.268;2022-11-15T01:05:32;65.00;;;33.13;;
22646;SDS011;11490;42.726;23.268;2022-11-15T01:07:58;61.17;;;32.20;;
22646;SDS011;11490;42.726;23.268;2022-11-15T01:10:23;63.83;;;31.05;;
22646;SDS011;11490;42.726;23.268;2022-11-15T01:12:50;50.08;;;27.98;;
22646;SDS011;11490;42.726;23.268;2022-11-15T01:15:16;52.47;;;28.17;;
22646;SDS011;11490;42.726;23.268;2022-11-15T01:17:41;51.08;;;27.63;;
22646;SDS011;11490;42.726;23.268;2022-11-15T01:20:07;52.67;;;27.67;;
22646;SDS011;11490;42.726;23.268;2022-11-15T01:22:33;60.38;;;29.17;;
22646;SDS011;11490;42.726;23.268;2022-11-15T01:24:58;51.97;;;28.30;;
22646;SDS011;11490;42.726;23.268;2022-11-15T01:27:23;59.58;;;30.38;;
22646;SDS011;11490;42.726;23.268;2022-11-15T01:29:49;50.40;;;27.58;;
22646;SDS011;11490;42.726;23.268;2022-11-15T01:32:15;57.47;;;26.00;;
22646;SDS011;11490;42.726;23.268;2022-11-15T01:34:40;50.47;;;27.65;;
22646;SDS011;11490;42.726;23.268;2022-11-15T01:37:06;42.10;;;23.35;;
22646;SDS011;11490;42.726;23.268;2022-11-15T01:39:31;47.92;;;23.08;;
22646;SDS011;11490;42.726;23.268;2022-11-15T01:41:56;51.88;;;25.55;;
22646;SDS011;11490;42.726;23.268;2022-11-15T01:47:00;48.25;;;26.85;;
22646;SDS011;11490;42.726;23.268;2022-11-15T01:49:29;41.40;;;22.80;;
22646;SDS011;11490;42.726;23.268;2022-11-15T01:51:58;48.42;;;25.80;;
22646;SDS011;11490;42.726;23.268;2022-11-15T01:54:26;48.08;;;26.15;;
22646;SDS011;11490;42.726;23.268;2022-11-15T01:56:53;35.63;;;21.83;;
22646;SDS011;11490;42.726;23.268;2022-11-15T01:59:25;50.30;;;24.17;;
22646;SDS011;11490;42.726;23.268;2022-11-15T02:01:51;42.28;;;23.90;;
22646;SDS011;11490;42.726;23.268;2022-11-15T02:04:19;34.67;;;21.77;;
22646;SDS011;11490;42.726;23.268;2022-11-15T02:06:48;46.75;;;23.83;;
22646;SDS011;11490;42.726;23.268;2022-11-15T02:09:14;40.67;;;21.77;;
22646;SDS011;11490;42.726;23.268;2022-11-15T02:11:40;39.53;;;22.23;;
22646;SDS011;11490;42.726;23.268;2022-11-15T02:14:05;40.10;;;22.67;;
22646;SDS011;11490;42.726;23.268;2022-11-15T02:32:59;37.80;;;19.73;;
22646;SDS011;11490;42.726;23.268;2022-11-15T02:41:41;38.38;;;21.77;;
22646;SDS011;11490;42.726;23.268;2022-11-15T02:44:19;36.92;;;22.33;;
22646;SDS011;11490;42.726;23.268;2022-11-15T02:46:52;43.53;;;21.42;;
22646;SDS011;11490;42.726;23.268;2022-11-15T02:49:47;34.47;;;20.80;;
22646;SDS011;11490;42.726;23.268;2022-11-15T02:52:19;34.40;;;19.88;;
22646;SDS011;11490;42.726;23.268;2022-11-15T02:54:56;40.63;;;22.98;;
22646;SDS011;11490;42.726;23.268;2022-11-15T03:00:09;32.70;;;21.02;;
22646;SDS011;11490;42.726;23.268;2022-11-15T03:08:10;26.65;;;17.88;;
22646;SDS011;11490;42.726;23.268;2022-11-15T03:16:09;37.20;;;19.30;;
22646;SDS011;11490;42.726;23.268;2022-11-15T03:18:43;40.33;;;20.73;;
22646;SDS011;11490;42.726;23.268;2022-11-15T03:21:12;30.42;;;17.63;;
22646;SDS011;11490;42.726;23.268;2022-11-15T03:23:40;40.30;;;22.60;;
22646;SDS011;11490;42.726;23.268;2022-11-15T03:26:09;44.47;;;21.35;;
22646;SDS011;11490;42.726;23.268;2022-11-15T03:28:41;32.00;;;19.85;;
22646;SDS011;11490;42.726;23.268;2022-11-15T03:31:22;44.50;;;21.95;;
22646;SDS011;11490;42.726;23.268;2022-11-15T03:34:11;33.95;;;20.13;;
22646;SDS011;11490;42.726;23.268;2022-11-15T03:36:47;40.22;;;22.23;;
22646;SDS011;11490;42.726;23.268;2022-11-15T03:39:13;48.38;;;24.48;;
22646;SDS011;11490;42.726;23.268;2022-11-15T03:42:02;39.53;;;23.27;;
22646;SDS011;11490;42.726;23.268;2022-11-15T03:47:28;36.90;;;22.40;;
22646;SDS011;11490;42.726;23.268;2022-11-15T03:50:10;43.78;;;22.45;;
22646;SDS011;11490;42.726;23.268;2022-11-15T03:52:38;38.67;;;21.80;;
22646;SDS011;11490;42.726;23.268;2022-11-15T03:55:06;42.00;;;22.60;;
22646;SDS011;11490;42.726;23.268;2022-11-15T03:57:35;41.15;;;21.13;;
22646;SDS011;11490;42.726;23.268;2022-11-15T04:00:00;44.83;;;21.83;;
22646;SDS011;11490;42.726;23.268;2022-11-15T04:02:26;45.95;;;21.85;;
22646;SDS011;11490;42.726;23.268;2022-11-15T04:04:51;45.17;;;20.50;;
22646;SDS011;11490;42.726;23.268;2022-11-15T04:07:16;35.30;;;19.17;;
22646;SDS011;11490;42.726;23.268;2022-11-15T04:09:42;33.78;;;19.30;;
22646;SDS011;11490;42.726;23.268;2022-11-15T04:12:26;39.80;;;21.52;;
22646;SDS011;11490;42.726;23.268;2022-11-15T04:14:58;53.47;;;22.92;;
22646;SDS011;11490;42.726;23.268;2022-11-15T04:17:34;33.70;;;20.35;;
22646;SDS011;11490;42.726;23.268;2022-11-15T04:20:01;38.20;;;17.88;;
22646;SDS011;11490;42.726;23.268;2022-11-15T04:22:46;54.10;;;22.35;;
22646;SDS011;11490;42.726;23.268;2022-11-15T04:25:30;51.15;;;24.00;;
22646;SDS011;11490;42.726;23.268;2022-11-15T04:27:55;64.63;;;27.27;;
22646;SDS011;11490;42.726;23.268;2022-11-15T04:30:20;58.80;;;28.13;;
22646;SDS011;11490;42.726;23.268;2022-11-15T04:32:46;64.20;;;30.40;;
22646;SDS011;11490;42.726;23.268;2022-11-15T04:35:11;58.75;;;29.73;;
22646;SDS011;11490;42.726;23.268;2022-11-15T04:37:36;66.13;;;31.20;;
22646;SDS011;11490;42.726;23.268;2022-11-15T04:40:02;64.25;;;24.48;;
22646;SDS011;11490;42.726;23.268;2022-11-15T04:42:27;47.63;;;23.08;;
22646;SDS011;11490;42.726;23.268;2022-11-15T04:44:53;53.88;;;23.50;;
22646;SDS011;11490;42.726;23.268;2022-11-15T04:47:18;50.13;;;25.33;;
22646;SDS011;11490;42.726;23.268;2022-11-15T04:49:43;56.60;;;23.77;;
22646;SDS011;11490;42.726;23.268;2022-11-15T04:52:09;46.38;;;24.40;;
22646;SDS011;11490;42.726;23.268;2022-11-15T04:54:34;52.97;;;25.27;;
22646;SDS011;11490;42.726;23.268;2022-11-15T04:56:59;44.78;;;21.05;;
22646;SDS011;11490;42.726;23.268;2022-11-15T04:59:25;42.35;;;21.23;;
22646;SDS011;11490;42.726;23.268;2022-11-15T05:01:50;50.30;;;22.02;;
22646;SDS011;11490;42.726;23.268;2022-11-15T05:04:16;60.17;;;21.42;;
22646;SDS011;11490;42.726;23.268;2022-11-15T05:06:45;48.00;;;23.67;;
22646;SDS011;11490;42.726;23.268;2022-11-15T05:09:14;41.53;;;20.75;;
22646;SDS011;11490;42.726;23.268;2022-11-15T05:11:40;46.25;;;20.98;;
22646;SDS011;11490;42.726;23.268;2022-11-15T05:14:06;35.38;;;18.90;;
22646;SDS011;11490;42.726;23.268;2022-11-15T05:16:31;36.53;;;15.82;;
22646;SDS011;11490;42.726;23.268;2022-11-15T05:18:56;29.08;;;16.23;;
22646;SDS011;11490;42.726;23.268;2022-11-15T05:21:22;35.85;;;16.35;;
22646;SDS011;11490;42.726;23.268;2022-11-15T05:23:47;31.77;;;15.25;;
22646;SDS011;11490;42.726;23.268;2022-11-15T05:26:13;33.13;;;16.42;;
22646;SDS011;11490;42.726;23.268;2022-11-15T05:28:41;29.45;;;15.10;;
22646;SDS011;11490;42.726;23.268;2022-11-15T05:31:07;33.30;;;18.48;;
22646;SDS011;11490;42.726;23.268;2022-11-15T05:33:40;30.95;;;14.90;;
22646;SDS011;11490;42.726;23.268;2022-11-15T05:36:09;39.17;;;17.75;;
22646;SDS011;11490;42.726;23.268;2022-11-15T05:38:35;31.70;;;16.35;;
22646;SDS011;11490;42.726;23.268;2022-11-15T05:41:00;38.72;;;17.48;;
22646;SDS011;11490;42.726;23.268;2022-11-15T05:43:27;30.27;;;15.18;;
22646;SDS011;11490;42.726;23.268;2022-11-15T05:45:55;33.13;;;15.70;;
22646;SDS011;11490;42.726;23.268;2022-11-15T05:48:23;37.45;;;18.50;;
22646;SDS011;11490;42.726;23.268;2022-11-15T05:50:48;30.85;;;16.23;;
22646;SDS011;11490;42.726;23.268;2022-11-15T05:53:15;36.08;;;16.98;;
22646;SDS011;11490;42.726;23.268;2022-11-15T05:55:44;36.58;;;16.33;;
22646;SDS011;11490;42.726;23.268;2022-11-15T05:58:10;41.03;;;19.10;;
22646;SDS011;11490;42.726;23.268;2022-11-15T06:00:36;40.28;;;18.63;;
22646;SDS011;11490;42.726;23.268;2022-11-15T06:03:01;34.83;;;16.63;;
22646;SDS011;11490;42.726;23.268;2022-11-15T06:05:27;45.20;;;18.88;;
22646;SDS011;11490;42.726;23.268;2022-11-15T06:07:52;44.28;;;19.85;;
22646;SDS011;11490;42.726;23.268;2022-11-15T06:10:17;92.03;;;37.20;;
22646;SDS011;11490;42.726;23.268;2022-11-15T06:12:43;84.80;;;40.53;;
22646;SDS011;11490;42.726;23.268;2022-11-15T06:15:08;75.70;;;33.38;;
22646;SDS011;11490;42.726;23.268;2022-11-15T06:17:34;52.15;;;27.52;;
22646;SDS011;11490;42.726;23.268;2022-11-15T06:19:59;52.38;;;26.52;;
22646;SDS011;11490;42.726;23.268;2022-11-15T06:22:24;47.00;;;23.05;;
22646;SDS011;11490;42.726;23.268;2022-11-15T06:24:50;40.08;;;18.80;;
22646;SDS011;11490;42.726;23.268;2022-11-15T06:27:15;41.75;;;16.52;;
22646;SDS011;11490;42.726;23.268;2022-11-15T06:29:41;46.58;;;19.48;;
22646;SDS011;11490;42.726;23.268;2022-11-15T06:32:06;39.65;;;16.80;;
22646;SDS011;11490;42.726;23.268;2022-11-15T06:34:32;45.92;;;21.40;;
22646;SDS011;11490;42.726;23.268;2022-11-15T06:36:57;41.58;;;18.83;;
22646;SDS011;11490;42.726;23.268;2022-11-15T06:39:22;50.42;;;20.02;;
22646;SDS011;11490;42.726;23.268;2022-11-15T06:41:48;37.90;;;17.35;;
22646;SDS011;11490;42.726;23.268;2022-11-15T06:44:13;63.10;;;27.20;;
22646;SDS011;11490;42.726;23.268;2022-11-15T06:46:39;77.07;;;24.48;;
22646;SDS011;11490;42.726;23.268;2022-11-15T06:49:04;47.25;;;21.65;;
22646;SDS011;11490;42.726;23.268;2022-11-15T06:51:29;44.58;;;20.70;;
22646;SDS011;11490;42.726;23.268;2022-11-15T06:53:55;46.65;;;19.10;;
22646;SDS011;11490;42.726;23.268;2022-11-15T06:56:20;39.92;;;20.63;;
22646;SDS011;11490;42.726;23.268;2022-11-15T06:58:45;38.45;;;18.48;;
22646;SDS011;11490;42.726;23.268;2022-11-15T07:01:11;59.00;;;23.92;;
22646;SDS011;11490;42.726;23.268;2022-11-15T07:03:38;51.60;;;22.77;;
22646;SDS011;11490;42.726;23.268;2022-11-15T07:06:06;52.60;;;24.33;;
22646;SDS011;11490;42.726;23.268;2022-11-15T07:08:32;62.97;;;29.30;;
22646;SDS011;11490;42.726;23.268;2022-11-15T07:10:58;62.88;;;31.02;;
22646;SDS011;11490;42.726;23.268;2022-11-15T07:13:26;71.15;;;31.88;;
22646;SDS011;11490;42.726;23.268;2022-11-15T07:15:51;51.42;;;26.77;;
22646;SDS011;11490;42.726;23.268;2022-11-15T07:18:17;69.07;;;27.67;;
22646;SDS011;11490;42.726;23.268;2022-11-15T07:20:43;60.25;;;28.05;;
22646;SDS011;11490;42.726;23.268;2022-11-15T07:23:08;55.42;;;25.65;;
22646;SDS011;11490;42.726;23.268;2022-11-15T07:25:33;63.10;;;29.52;;
22646;SDS011;11490;42.726;23.268;2022-11-15T07:27:59;56.38;;;28.00;;
22646;SDS011;11490;42.726;23.268;2022-11-15T07:30:25;58.72;;;29.42;;
22646;SDS011;11490;42.726;23.268;2022-11-15T07:35:20;61.53;;;32.58;;
22646;SDS011;11490;42.726;23.268;2022-11-15T07:37:56;60.83;;;28.65;;
22646;SDS011;11490;42.726;23.268;2022-11-15T07:40:26;62.47;;;29.98;;
22646;SDS011;11490;42.726;23.268;2022-11-15T07:43:03;56.55;;;25.95;;
22646;SDS011;11490;42.726;23.268;2022-11-15T07:45:30;42.75;;;20.60;;
22646;SDS011;11490;42.726;23.268;2022-11-15T07:47:58;48.80;;;23.27;;
22646;SDS011;11490;42.726;23.268;2022-11-15T07:50:24;54.55;;;20.90;;
22646;SDS011;11490;42.726;23.268;2022-11-15T07:52:57;52.72;;;22.58;;
22646;SDS011;11490;42.726;23.268;2022-11-15T07:55:24;44.40;;;23.50;;
22646;SDS011;11490;42.726;23.268;2022-11-15T07:58:05;44.92;;;24.50;;
22646;SDS011;11490;42.726;23.268;2022-11-15T08:00:32;52.53;;;23.65;;
22646;SDS011;11490;42.726;23.268;2022-11-15T08:03:05;45.45;;;22.38;;
22646;SDS011;11490;42.726;23.268;2022-11-15T08:05:35;53.45;;;23.15;;
22646;SDS011;11490;42.726;23.268;2022-11-15T08:08:04;44.25;;;23.38;;
22646;SDS011;11490;42.726;23.268;2022-11-15T08:10:30;61.28;;;31.88;;
22646;SDS011;11490;42.726;23.268;2022-11-15T08:12:56;54.83;;;25.92;;
22646;SDS011;11490;42.726;23.268;2022-11-15T08:15:23;46.63;;;22.10;;
22646;SDS011;11490;42.726;23.268;2022-11-15T08:17:52;54.17;;;25.95;;
22646;SDS011;11490;42.726;23.268;2022-11-15T08:20:26;45.33;;;22.23;;
22646;SDS011;11490;42.726;23.268;2022-11-15T08:22:55;41.53;;;21.35;;
22646;SDS011;11490;42.726;23.268;2022-11-15T08:25:21;41.35;;;20.83;;
22646;SDS011;11490;42.726;23.268;2022-11-15T08:27:47;40.92;;;20.40;;
22646;SDS011;11490;42.726;23.268;2022-11-15T08:30:15;50.05;;;22.17;;
22646;SDS011;11490;42.726;23.268;2022-11-15T08:32:41;46.53;;;21.50;;
22646;SDS011;11490;42.726;23.268;2022-11-15T08:35:06;44.80;;;21.23;;
22646;SDS011;11490;42.726;23.268;2022-11-15T08:37:32;52.35;;;22.48;;
22646;SDS011;11490;42.726;23.268;2022-11-15T08:39:57;65.55;;;31.52;;
22646;SDS011;11490;42.726;23.268;2022-11-15T08:42:24;52.85;;;26.17;;
22646;SDS011;11490;42.726;23.268;2022-11-15T08:44:49;53.50;;;25.05;;
22646;SDS011;11490;42.726;23.268;2022-11-15T08:47:15;55.92;;;26.13;;
22646;SDS011;11490;42.726;23.268;2022-11-15T08:49:40;51.53;;;25.10;;
22646;SDS011;11490;42.726;23.268;2022-11-15T08:52:06;59.50;;;26.23;;
22646;SDS011;11490;42.726;23.268;2022-11-15T08:54:31;126.07;;;54.28;;
22646;SDS011;11490;42.726;23.268;2022-11-15T08:56:56;67.70;;;30.90;;
22646;SDS011;11490;42.726;23.268;2022-11-15T08:59:22;70.80;;;30.73;;
22646;SDS011;11490;42.726;23.268;2022-11-15T09:01:47;81.93;;;36.92;;
22646;SDS011;11490;42.726;23.268;2022-11-15T09:04:13;71.07;;;33.17;;
22646;SDS011;11490;42.726;23.268;2022-11-15T09:06:38;75.28;;;32.65;;
22646;SDS011;11490;42.726;23.268;2022-11-15T09:09:04;80.40;;;35.33;;
22646;SDS011;11490;42.726;23.268;2022-11-15T09:11:29;74.43;;;33.53;;
22646;SDS011;11490;42.726;23.268;2022-11-15T09:13:54;85.35;;;35.72;;
22646;SDS011;11490;42.726;23.268;2022-11-15T09:16:20;68.30;;;29.45;;
22646;SDS011;11490;42.726;23.268;2022-11-15T09:18:46;66.78;;;32.10;;
22646;SDS011;11490;42.726;23.268;2022-11-15T09:21:12;78.93;;;32.67;;
22646;SDS011;11490;42.726;23.268;2022-11-15T09:23:37;63.90;;;30.65;;
22646;SDS011;11490;42.726;23.268;2022-11-15T09:26:04;76.57;;;32.03;;
22646;SDS011;11490;42.726;23.268;2022-11-15T09:28:30;66.38;;;30.75;;
22646;SDS011;11490;42.726;23.268;2022-11-15T09:30:57;82.55;;;36.38;;
22646;SDS011;11490;42.726;23.268;2022-11-15T09:33:23;80.13;;;31.95;;
22646;SDS011;11490;42.726;23.268;2022-11-15T09:35:49;72.82;;;32.47;;
22646;SDS011;11490;42.726;23.268;2022-11-15T09:38:15;65.50;;;33.72;;
22646;SDS011;11490;42.726;23.268;2022-11-15T09:40:40;77.28;;;33.33;;
22646;SDS011;11490;42.726;23.268;2022-11-15T09:48:54;91.30;;;36.70;;
22646;SDS011;11490;42.726;23.268;2022-11-15T09:53:56;66.95;;;28.60;;
22646;SDS011;11490;42.726;23.268;2022-11-15T09:56:24;70.32;;;31.35;;
22646;SDS011;11490;42.726;23.268;2022-11-15T09:58:56;76.10;;;31.08;;
22646;SDS011;11490;42.726;23.268;2022-11-15T10:04:21;106.22;;;43.88;;
22646;SDS011;11490;42.726;23.268;2022-11-15T10:07:00;72.65;;;32.05;;
22646;SDS011;11490;42.726;23.268;2022-11-15T10:09:51;59.10;;;31.27;;
22646;SDS011;11490;42.726;23.268;2022-11-15T10:12:22;74.00;;;34.28;;
22646;SDS011;11490;42.726;23.268;2022-11-15T10:14:49;109.63;;;49.35;;
22646;SDS011;11490;42.726;23.268;2022-11-15T10:22:52;68.65;;;31.17;;
22646;SDS011;11490;42.726;23.268;2022-11-15T10:25:22;65.57;;;34.50;;
22646;SDS011;11490;42.726;23.268;2022-11-15T10:28:09;63.70;;;31.85;;
22646;SDS011;11490;42.726;23.268;2022-11-15T10:30:41;74.28;;;31.55;;
22646;SDS011;11490;42.726;23.268;2022-11-15T10:33:20;68.75;;;30.20;;
22646;SDS011;11490;42.726;23.268;2022-11-15T10:43:42;75.80;;;36.92;;
22646;SDS011;11490;42.726;23.268;2022-11-15T10:46:41;82.07;;;43.17;;
22646;SDS011;11490;42.726;23.268;2022-11-15T10:51:48;60.22;;;31.17;;
22646;SDS011;11490;42.726;23.268;2022-11-15T10:54:36;63.47;;;33.45;;
22646;SDS011;11490;42.726;23.268;2022-11-15T10:57:39;88.10;;;42.63;;
22646;SDS011;11490;42.726;23.268;2022-11-15T11:00:03;65.35;;;31.92;;
22646;SDS011;11490;42.726;23.268;2022-11-15T11:02:32;53.90;;;29.45;;
22646;SDS011;11490;42.726;23.268;2022-11-15T11:05:02;61.47;;;29.10;;
22646;SDS011;11490;42.726;23.268;2022-11-15T11:13:23;42.25;;;23.10;;
22646;SDS011;11490;42.726;23.268;2022-11-15T11:15:53;45.80;;;25.85;;
22646;SDS011;11490;42.726;23.268;2022-11-15T11:21:38;67.85;;;35.95;;
22646;SDS011;11490;42.726;23.268;2022-11-15T11:27:01;57.40;;;28.40;;
22646;SDS011;11490;42.726;23.268;2022-11-15T11:37:52;60.85;;;27.63;;
22646;SDS011;11490;42.726;23.268;2022-11-15T11:40:37;48.00;;;25.30;;
22646;SDS011;11490;42.726;23.268;2022-11-15T11:48:43;54.72;;;28.10;;
22646;SDS011;11490;42.726;23.268;2022-11-15T11:53:45;53.40;;;27.88;;
22646;SDS011;11490;42.726;23.268;2022-11-15T11:56:21;47.70;;;23.92;;
22646;SDS011;11490;42.726;23.268;2022-11-15T11:58:50;53.35;;;27.15;;
22646;SDS011;11490;42.726;23.268;2022-11-15T12:01:28;53.85;;;29.40;;
22646;SDS011;11490;42.726;23.268;2022-11-15T12:03:59;52.95;;;26.73;;
22646;SDS011;11490;42.726;23.268;2022-11-15T12:06:35;44.90;;;25.30;;
22646;SDS011;11490;42.726;23.268;2022-11-15T12:09:13;48.55;;;27.35;;
22646;SDS011;11490;42.726;23.268;2022-11-15T12:12:04;50.80;;;28.23;;
22646;SDS011;11490;42.726;23.268;2022-11-15T12:14:51;49.22;;;26.42;;
22646;SDS011;11490;42.726;23.268;2022-11-15T12:17:22;51.63;;;26.88;;
22646;SDS011;11490;42.726;23.268;2022-11-15T12:19:51;54.78;;;27.38;;
22646;SDS011;11490;42.726;23.268;2022-11-15T12:24:50;49.33;;;25.17;;
22646;SDS011;11490;42.726;23.268;2022-11-15T12:30:15;56.60;;;26.33;;
22646;SDS011;11490;42.726;23.268;2022-11-15T12:32:57;49.83;;;26.00;;
22646;SDS011;11490;42.726;23.268;2022-11-15T12:38:10;50.58;;;25.05;;
22646;SDS011;11490;42.726;23.268;2022-11-15T12:40:38;42.88;;;23.50;;
22646;SDS011;11490;42.726;23.268;2022-11-15T12:46:01;48.08;;;25.55;;
22646;SDS011;11490;42.726;23.268;2022-11-15T12:51:00;48.15;;;25.27;;
22646;SDS011;11490;42.726;23.268;2022-11-15T13:06:45;53.60;;;26.80;;
22646;SDS011;11490;42.726;23.268;2022-11-15T13:11:55;58.35;;;24.05;;
22646;SDS011;11490;42.726;23.268;2022-11-15T13:20:31;47.45;;;23.85;;
22646;SDS011;11490;42.726;23.268;2022-11-15T13:28:08;42.30;;;23.90;;
22646;SDS011;11490;42.726;23.268;2022-11-15T13:30:37;42.17;;;22.17;;
22646;SDS011;11490;42.726;23.268;2022-11-15T13:33:07;39.40;;;23.83;;
22646;SDS011;11490;42.726;23.268;2022-11-15T13:35:38;54.00;;;26.85;;
22646;SDS011;11490;42.726;23.268;2022-11-15T13:38:05;49.88;;;25.83;;
22646;SDS011;11490;42.726;23.268;2022-11-15T13:40:34;51.72;;;24.73;;
22646;SDS011;11490;42.726;23.268;2022-11-15T13:46:05;41.55;;;22.75;;
22646;SDS011;11490;42.726;23.268;2022-11-15T13:49:09;52.83;;;25.58;;
22646;SDS011;11490;42.726;23.268;2022-11-15T13:51:45;42.83;;;21.88;;
22646;SDS011;11490;42.726;23.268;2022-11-15T13:54:22;52.00;;;26.30;;
22646;SDS011;11490;42.726;23.268;2022-11-15T13:57:01;51.15;;;26.63;;
22646;SDS011;11490;42.726;23.268;2022-11-15T13:59:31;40.47;;;23.33;;
22646;SDS011;11490;42.726;23.268;2022-11-15T14:02:14;48.28;;;23.48;;
22646;SDS011;11490;42.726;23.268;2022-11-15T14:05:02;47.28;;;25.33;;
22646;SDS011;11490;42.726;23.268;2022-11-15T14:10:43;63.20;;;30.38;;
22646;SDS011;11490;42.726;23.268;2022-11-15T14:13:29;51.42;;;26.92;;
22646;SDS011;11490;42.726;23.268;2022-11-15T14:21:16;49.92;;;27.08;;
22646;SDS011;11490;42.726;23.268;2022-11-15T14:23:43;48.85;;;25.90;;
22646;SDS011;11490;42.726;23.268;2022-11-15T14:26:28;43.22;;;22.65;;
22646;SDS011;11490;42.726;23.268;2022-11-15T14:28:55;39.58;;;21.27;;
22646;SDS011;11490;42.726;23.268;2022-11-15T14:31:21;48.97;;;25.27;;
22646;SDS011;11490;42.726;23.268;2022-11-15T14:33:47;50.47;;;25.08;;
22646;SDS011;11490;42.726;23.268;2022-11-15T14:36:13;47.83;;;27.27;;
22646;SDS011;11490;42.726;23.268;2022-11-15T14:38:43;49.33;;;25.95;;
22646;SDS011;11490;42.726;23.268;2022-11-15T14:41:20;48.42;;;26.95;;
22646;SDS011;11490;42.726;23.268;2022-11-15T14:43:47;50.38;;;24.70;;
22646;SDS011;11490;42.726;23.268;2022-11-15T14:46:13;43.92;;;23.63;;
22646;SDS011;11490;42.726;23.268;2022-11-15T14:48:39;44.22;;;24.50;;
22646;SDS011;11490;42.726;23.268;2022-11-15T14:51:09;55.08;;;23.52;;
22646;SDS011;11490;42.726;23.268;2022-11-15T14:53:41;46.97;;;23.88;;
22646;SDS011;11490;42.726;23.268;2022-11-15T14:56:08;37.72;;;23.35;;
22646;SDS011;11490;42.726;23.268;2022-11-15T14:58:43;46.03;;;24.10;;
22646;SDS011;11490;42.726;23.268;2022-11-15T15:01:21;43.63;;;24.88;;
22646;SDS011;11490;42.726;23.268;2022-11-15T15:03:50;35.15;;;20.98;;
22646;SDS011;11490;42.726;23.268;2022-11-15T15:06:23;44.30;;;21.38;;
22646;SDS011;11490;42.726;23.268;2022-11-15T15:08:49;40.60;;;22.70;;
22646;SDS011;11490;42.726;23.268;2022-11-15T15:11:16;50.30;;;23.27;;
22646;SDS011;11490;42.726;23.268;2022-11-15T15:13:54;46.75;;;22.50;;
22646;SDS011;11490;42.726;23.268;2022-11-15T15:16:22;38.15;;;21.75;;
22646;SDS011;11490;42.726;23.268;2022-11-15T15:18:50;33.78;;;19.60;;
22646;SDS011;11490;42.726;23.268;2022-11-15T15:21:23;45.05;;;23.52;;
22646;SDS011;11490;42.726;23.268;2022-11-15T15:23:50;51.08;;;26.67;;
22646;SDS011;11490;42.726;23.268;2022-11-15T15:26:16;47.45;;;26.02;;
22646;SDS011;11490;42.726;23.268;2022-11-15T15:28:42;56.45;;;32.80;;
22646;SDS011;11490;42.726;23.268;2022-11-15T15:31:08;61.55;;;34.05;;
22646;SDS011;11490;42.726;23.268;2022-11-15T15:33:35;54.15;;;30.27;;
22646;SDS011;11490;42.726;23.268;2022-11-15T15:36:00;57.90;;;32.40;;
22646;SDS011;11490;42.726;23.268;2022-11-15T15:38:25;63.97;;;29.65;;
22646;SDS011;11490;42.726;23.268;2022-11-15T15:40:51;57.72;;;30.45;;
22646;SDS011;11490;42.726;23.268;2022-11-15T15:43:16;68.25;;;31.90;;
22646;SDS011;11490;42.726;23.268;2022-11-15T15:45:42;65.90;;;32.83;;
22646;SDS011;11490;42.726;23.268;2022-11-15T15:48:14;75.05;;;36.42;;
22646;SDS011;11490;42.726;23.268;2022-11-15T15:50:41;101.97;;;43.80;;
22646;SDS011;11490;42.726;23.268;2022-11-15T15:53:11;75.40;;;33.80;;
22646;SDS011;11490;42.726;23.268;2022-11-15T15:55:37;74.47;;;37.17;;
22646;SDS011;11490;42.726;23.268;2022-11-15T15:58:03;73.28;;;35.70;;
22646;SDS011;11490;42.726;23.268;2022-11-15T16:00:29;65.57;;;32.45;;
22646;SDS011;11490;42.726;23.268;2022-11-15T16:02:57;62.38;;;32.92;;
22646;SDS011;11490;42.726;23.268;2022-11-15T16:05:23;70.97;;;35.22;;
22646;SDS011;11490;42.726;23.268;2022-11-15T16:07:49;74.88;;;38.65;;
22646;SDS011;11490;42.726;23.268;2022-11-15T16:10:16;93.93;;;44.97;;
22646;SDS011;11490;42.726;23.268;2022-11-15T16:12:49;115.40;;;49.00;;
22646;SDS011;11490;42.726;23.268;2022-11-15T16:15:15;96.30;;;48.63;;
22646;SDS011;11490;42.726;23.268;2022-11-15T16:17:44;76.60;;;45.20;;
22646;SDS011;11490;42.726;23.268;2022-11-15T16:23:00;85.45;;;39.78;;
22646;SDS011;11490;42.726;23.268;2022-11-15T16:25:31;80.55;;;41.63;;
22646;SDS011;11490;42.726;23.268;2022-11-15T16:28:03;79.57;;;40.58;;
22646;SDS011;11490;42.726;23.268;2022-11-15T16:30:29;89.72;;;43.03;;
22646;SDS011;11490;42.726;23.268;2022-11-15T16:32:54;73.50;;;39.60;;
22646;SDS011;11490;42.726;23.268;2022-11-15T16:35:20;70.55;;;37.38;;
22646;SDS011;11490;42.726;23.268;2022-11-15T16:37:45;82.18;;;39.88;;
22646;SDS011;11490;42.726;23.268;2022-11-15T16:40:26;83.28;;;41.20;;
22646;SDS011;11490;42.726;23.268;2022-11-15T16:42:55;84.72;;;42.92;;
22646;SDS011;11490;42.726;23.268;2022-11-15T16:45:22;71.70;;;38.30;;
22646;SDS011;11490;42.726;23.268;2022-11-15T16:47:48;91.07;;;42.80;;
22646;SDS011;11490;42.726;23.268;2022-11-15T16:50:17;80.43;;;40.25;;
22646;SDS011;11490;42.726;23.268;2022-11-15T16:52:48;80.97;;;40.03;;